Weather observations for the past three days for
Albemarle, Stanly County Airport
Metric (Imperial)
Date Time (edt) Wind (kph) Vis. (km) Weather Sky Cond. Temperature (ºC) Relative Humidity Wind Chill (°C) Heat Index (°C) Pressure Precipitation (cm)
Air Dwpt 6 hour altimeter (cm) sea level (mb) 1 hr 3 hr 6 hr
Max. Min.
05 12:55 SW 17 G 31 16.09 Partly Cloudy SCT060 25.5 8.7 35% 26 76.35 0.0
05 12:35 SW 17 16.09 Partly Cloudy SCT060 25.6 9 35% 26 76.35 0.0
05 12:15 SW 11 G 30 16.09 Fair CLR 25.1 9.6 38% 26 76.38 0.0
05 11:55 S 13 16.09 Fair CLR 24.7 10.2 40% 26 76.4 0.0
05 11:35 S 17 G 26 16.09 Fair CLR 24.1 10.7 43% 25 76.4 0.0
05 11:15 S 19 16.09 Fair CLR 23.5 11.3 46% 76.4 0.0
05 10:55 SW 17 G 30 16.09 Fair CLR 22.9 11.4 48% 76.4 0.0
05 10:35 SW 11 16.09 Fair CLR 22.3 11.8 52% 76.4 0.0
05 10:15 SW 13 16.09 Fair CLR 21.2 11.9 56% 76.4 0.0
05 09:55 SW 15 16.09 Fair CLR 20.9 12.1 57% 76.4 0.0
05 09:35 SW 15 G 26 16.09 Fair CLR 19.3 11.5 61% 76.4 0.0
05 09:15 SW 15 16.09 Fair CLR 18.3 11.3 64% 76.4 0.0
05 08:55 SW 15 16.09 Fair CLR 17.1 10.7 66% 76.4 0.0
05 08:35 SW 11 16.09 Fair CLR 16.3 10.5 69% 76.4 0.0
05 08:15 SW 6 16.09 Fair CLR 14.9 10.4 75% 76.4 0.0
05 07:55 Calm 16.09 Fair CLR 11.9 9.7 13.7 7.8 87% 76.4 0.0
05 07:35 Calm 16.09 Fair CLR 9.1 7.7 91% 76.4 0.0
05 07:15 Calm 16.09 Fair CLR 8.4 7.2 92% 76.4 0.0
05 06:55 Calm 16.09 Fair CLR 8.6 7.7 94% 76.38 0.0
05 06:35 Calm 16.09 Fair CLR 8.1 7.2 94% 76.38 0.0
05 06:15 Calm 16.09 Fair CLR 8.3 7.1 92% 76.35 0.0
05 05:55 Calm 16.09 Fair CLR 8.4 7 91% 76.33 0.0
05 05:35 Calm 16.09 Fair CLR 9 7.5 90% 76.33 0.0
05 05:15 Calm 16.09 Fair CLR 8.5 6.9 90% 76.3 0.0
05 04:55 Calm 16.09 Fair CLR 9.1 7.1 87% 76.28 0.0
05 04:35 Calm 16.09 Fair CLR 10.2 7.7 85% 76.3 0.0
05 04:15 Calm 16.09 Fair CLR 10.5 8.1 85% 76.28 0.0
05 03:55 Calm 16.09 Fair CLR 10.4 7.9 85% 76.28 0.0
05 03:35 Calm 16.09 Fair CLR 10.7 7.8 82% 76.28 0.0
05 03:15 Calm 16.09 Fair CLR 12.1 8 76% 76.25 0.0
05 02:55 Calm 16.09 Fair CLR 12.9 8 72% 76.28 0.0
05 02:35 Calm 16.09 Thunderstorm in Vicinity CLR 13.2 8.1 71% 76.28 0.0
05 02:15 SW 6 16.09 Fair CLR 13.5 8.2 71% 76.28 0.0
05 01:55 S 7 16.09 Fair CLR 13.6 8.2 21.2 13.2 70% 76.28 0.0
05 01:35 S 9 16.09 Fair CLR 14.3 8 66% 76.28 0.0
05 01:15 S 9 16.09 Fair CLR 15.2 8 62% 76.28 0.0
05 00:55 S 9 16.09 Fair CLR 16.1 7.8 58% 76.28 0.0
05 00:35 S 17 16.09 Fair CLR 16.8 7.6 55% 76.28 0.0
05 00:15 S 15 16.09 Fair CLR 17.4 7.4 52% 76.28 0.0
04 23:55 S 17 16.09 Fair CLR 17.9 7.2 50% 76.28 0.0
04 23:35 S 17 16.09 Fair CLR 16.7 6.1 50% 76.28 0.0
04 23:15 S 7 16.09 Fair CLR 16 4.6 47% 76.28 0.0
04 22:55 SW 9 16.09 Fair CLR 16.7 4.6 45% 76.28 0.0
04 22:35 Calm 16.09 Fair CLR 17.2 4.5 43% 76.28 0.0
04 22:15 S 11 16.09 Fair CLR 16.1 3.9 44% 76.28 0.0
04 21:55 SW 6 16.09 Fair CLR 17.8 3.1 38% 76.25 0.0
04 21:35 SW 6 16.09 Fair CLR 18.5 2.9 36% 76.23 0.0
04 21:15 SW 6 16.09 Fair CLR 18.7 3 35% 76.2 0.0
04 20:55 SW 7 16.09 Fair CLR 18.6 2.8 35% 76.2 0.0
04 20:35 SW 7 16.09 Fair CLR 19.5 2.8 33% 76.17 0.0
04 20:15 SW 7 16.09 Fair CLR 20.5 2.6 31% 76.17 0.0
04 19:55 SW 9 16.09 Fair CLR 21.3 2.4 27.2 21.3 29% 76.15 0.0
04 19:35 SW 9 16.09 Fair CLR 22.7 1.9 25% 76.15 0.0
04 19:15 SW 13 16.09 Fair CLR 24.5 1 21% 25 76.12 0.0
04 18:55 SW 17 G 26 16.09 Fair CLR 25.5 0.7 20% 25 76.12 0.0
04 18:35 SW 19 G 28 16.09 Fair CLR 26.1 2 21% 26 76.12 0.0
04 18:15 S 13 G 26 16.09 Fair CLR 26.3 2 21% 26 76.12 0.0
04 17:55 SW 17 16.09 Fair CLR 26.6 1.8 20% 26 76.12 0.0
04 17:35 SW 11 G 26 16.09 Fair CLR 26.7 1.8 20% 26 76.12 0.0
04 17:15 SW 13 16.09 Fair CLR 26.8 1.7 20% 26 76.15 0.0
04 16:55 S 11 G 26 16.09 Fair CLR 27.1 2.1 20% 26 76.15 0.0
04 16:35 S 7 G 15 16.09 Fair CLR 26.9 2.6 21% 26 76.15 0.0
04 16:15 SW 11 16.09 Fair CLR 26.5 3.1 22% 26 76.17 0.0
04 15:55 SW 11 16.09 Fair CLR 26.5 3.1 22% 26 76.2 0.0
04 15:35 W 17 16.09 Fair CLR 26.5 3.7 23% 26 76.2 0.0
04 15:15 Calm 16.09 Fair CLR 26.4 3.9 23% 26 76.23 0.0
04 14:55 SW 13 16.09 Fair CLR 25.8 3.7 24% 26 76.25 0.0
04 14:35 S 11 16.09 Fair CLR 26.1 4.4 25% 26 76.25 0.0
04 14:15 N 7 16.09 Fair CLR 25.9 3.9 24% 26 76.25 0.0
04 13:55 W 11 16.09 Fair CLR 24.9 4 24.9 8.7 26% 25 76.28 0.0
04 13:35 Calm 16.09 Fair CLR 24.8 3.5 25% 25 76.28 0.0
04 13:15 Calm 16.09 Fair CLR 24 3.2 26% 25 76.3 0.0
04 12:55 Calm 16.09 Fair CLR 23.8 3.1 26% 76.35 0.0
04 12:35 NW 11 16.09 Fair CLR 23.2 3 27% 76.38 0.0
04 12:15 W 9 16.09 Fair CLR 22.3 4.2 31% 76.4 0.0
04 11:55 W 13 16.09 Fair CLR 21.9 3.7 30% 76.4 0.0
04 11:35 W 7 16.09 Fair CLR 22.3 4.2 31% 76.4 0.0
04 11:15 W 6 16.09 Fair CLR 20.7 5.3 37% 76.43 0.0
04 10:55 S 6 16.09 Fair CLR 21 6.3 39% 76.4 0.0
04 10:35 Calm 16.09 Fair CLR 19.2 6.1 43% 76.4 0.0
04 10:15 Calm 16.09 Fair CLR 18.3 7 48% 76.4 0.0
04 09:55 Calm 16.09 Fair CLR 17 7.1 52% 76.43 0.0
04 09:35 Calm 16.09 Fair CLR 16 7 55% 76.43 0.0
04 09:15 W 6 16.09 Fair CLR 14.7 6.8 59% 76.43 0.0
04 08:55 W 6 16.09 Fair CLR 13.7 7.3 66% 76.43 0.0
04 08:35 Calm 16.09 Fair CLR 12.1 7.3 73% 76.4 0.0
04 08:15 Calm 16.09 Fair CLR 11 7.5 79% 76.4 0.0
04 07:55 Calm 16.09 Fair CLR 8.4 7 8.4 3.9 91% 76.43 0.0
04 07:35 Calm 16.09 Fair CLR 6.8 6.1 95% 76.43 0.0
04 07:10 Calm 16.09 Fair CLR 4.6 3.8 95% 76.4 0.0
04 06:55 Calm 16.09 Fair CLR 4.1 3.5 96% 76.4 0.0
04 06:35 Calm 16.09 Fair CLR 4.1 3.3 95% 76.4 0.0
04 06:15 Calm 16.09 Fair CLR 4.2 3.5 95% 76.4 0.0
04 05:55 Calm 16.09 Fair CLR 4.5 3.9 96% 76.4 0.0
04 05:15 Calm 11.27 Thunderstorm in Vicinity CLR 4.5 3.8 95% 76.4 0.0
04 04:55 Calm 11.27 Fair CLR 4.7 4.1 96% 76.4 0.0
04 04:35 Calm 8.05 Fog/Mist CLR 4.7 3.9 95% 76.4 0.0
04 04:15 Calm 16.09 Fair CLR 4.5 3.4 93% 76.38 0.0
04 03:55 Calm 11.27 Fair CLR 5 3.3 89% 76.38 0.0
04 03:35 Calm 11.27 Fair CLR 5.3 3.9 91% 76.38 0.0
04 03:15 Calm 16.09 Fair CLR 5.1 3.7 91% 76.38 0.0
04 02:55 Calm 16.09 Fair CLR 4.6 2.6 87% 76.38 0.0
04 02:35 Calm 16.09 Fair CLR 5.7 3.8 88% 76.4 0.0
04 02:15 Calm 16.09 Fair CLR 5.7 3.9 88% 76.4 0.0
04 01:55 Calm 16.09 Fair CLR 5.6 4.1 15.5 5.1 90% 76.4 0.0
04 01:35 Calm 16.09 Fair CLR 5.8 4.2 90% 76.4 0.0
04 01:15 Calm 16.09 Fair CLR 6.1 4 87% 76.4 0.0
04 00:55 Calm 16.09 Fair CLR 6 3.7 85% 76.4 0.0
04 00:35 Calm 16.09 Fair CLR 6.6 4.3 85% 76.43 0.0
04 00:15 Calm 16.09 Fair CLR 6.5 3.8 83% 76.4 0.0
03 23:55 Calm 16.09 Fair CLR 7 3.9 81% 76.43 0.0
03 23:35 Calm 16.09 Fair CLR 7.3 4.1 80% 76.43 0.0
03 23:15 Calm 16.09 Fair CLR 6.8 4.2 84% 76.43 0.0
03 22:55 Calm 16.09 Fair CLR 7.7 3.8 77% 76.4 0.0
03 22:35 Calm 16.09 Fair CLR 7.7 4.5 80% 76.4 0.0
03 22:15 Calm 16.09 Fair CLR 8.1 3.9 75% 76.4 0.0
03 21:55 Calm 16.09 Fair CLR 8.4 4.3 76% 76.38 0.0
03 21:35 Calm 16.09 Fair CLR 9.4 3.6 67% 76.35 0.0
03 21:15 Calm 16.09 Fair CLR 9.5 3.6 67% 76.35 0.0
03 20:55 Calm 16.09 Fair CLR 11.3 3 57% 76.33 0.0
03 20:35 Calm 16.09 Fair CLR 12 3.8 58% 76.33 0.0
03 20:15 Calm 16.09 Fair CLR 13.9 2.9 48% 76.3 0.0
03 19:55 Calm 16.09 Fair CLR 15.4 2.7 20.6 15.4 43% 76.3 0.0
03 19:35 Calm 16.09 Fair CLR 17.1 2.8 39% 76.3 0.0
03 19:15 Calm 16.09 Fair CLR 19.3 0.3 28% 76.3 0.0
03 18:55 Calm 16.09 Fair CLR 19.8 0 27% 76.3 0.0
03 18:35 NW 6 16.09 Fair CLR 20 0 26% 76.33 0.0
03 18:15 Calm 16.09 Fair CLR 20.2 -0.5 25% 76.33 0.0
03 17:55 W 11 16.09 Fair CLR 20.1 -0.3 26% 76.33 0.0
03 17:35 W 9 16.09 Fair CLR 20.2 -1 24% 76.33 0.0
03 17:15 NW 11 16.09 Fair CLR 20.1 -1.5 23% 76.35 0.0
03 16:55 W 11 16.09 Fair CLR 20.5 -1.6 23% 76.35 0.0
03 16:35 NW 6 16.09 Fair CLR 20.1 -2.3 22% 76.35 0.0
03 16:15 W 17 16.09 Fair CLR 20.1 -2.1 22% 76.38 0.0
03 15:55 NW 11 16.09 Fair CLR 20.5 -1.4 23% 76.4 0.0
03 15:35 NW 6 16.09 Fair CLR 19.5 -2.1 23% 76.43 0.0
03 15:15 NW 9 16.09 Fair CLR 19.8 -2.3 22% 76.45 0.0
03 14:35 NW 13 16.09 Fair CLR 19 -1.3 25% 76.48 0.0
03 14:15 NW 20 G 26 16.09 Fair CLR 18.5 -1.5 26% 76.5 0.0
03 13:55 NW 19 G 26 16.09 Fair CLR 18 -2.3 18.2 7.9 25% 76.5 0.0
03 13:35 W 15 16.09 Fair CLR 17.6 -1.6 27% 76.53 0.0
03 13:15 NW 15 G 26 16.09 Fair CLR 17.5 -1.3 28% 76.58 0.0
03 12:55 N 11 16.09 Fair CLR 17.3 -1.6 28% 76.58 0.0
03 12:35 W 11 16.09 Fair CLR 16.9 -1.2 29% 76.61 0.0
03 12:15 W 11 16.09 Fair CLR 16.8 -1.1 30% 76.61 0.0
03 11:55 NW 13 16.09 Fair CLR 16.1 -1.4 30% 76.63 0.0
03 11:35 NW 15 G 30 16.09 Fair CLR 15.1 -1.6 32% 76.63 0.0
03 11:15 NW 15 G 26 16.09 Fair CLR 15.1 -1.4 32% 76.66 0.0
03 10:55 N 13 G 28 16.09 Fair CLR 14.2 -1.2 35% 76.66 0.0
03 10:35 NW 13 G 26 16.09 Fair CLR 14.2 -1.8 33% 76.66 0.0
03 10:15 NW 13 G 26 16.09 Fair CLR 13.6 -1.9 34% 76.66 0.0
03 09:55 N 13 G 26 16.09 Fair CLR 13.4 -0.8 38% 76.63 0.0
03 09:35 N 20 G 31 16.09 Fair CLR 13 0.2 42% 76.61 0.0
03 09:15 N 13 16.09 Fair CLR 12.6 0.5 44% 76.63 0.0
03 08:35 N 11 16.09 Fair CLR 10.6 2.9 59% 76.61 0.0
03 08:15 N 7 16.09 Fair CLR 9.5 4.3 70% 9 76.61 0.0
03 07:55 N 6 16.09 Fair CLR 7.6 4.6 7.6 1.3 82% 76.61 0.0
03 07:35 Calm 16.09 Fair CLR 4.2 3.3 94% 76.58 0.0
03 07:15 Calm 16.09 Fair CLR 2.2 1.4 95% 76.58 0.0
03 06:55 Calm 16.09 Fair CLR 1.6 0.4 92% 76.53 0.0
03 06:35 Calm 16.09 Fair CLR 2.5 1 90% 76.5 0.0
03 06:15 Calm 16.09 Fair CLR 2.8 1.2 89% 76.48 0.0
03 05:55 NW 6 16.09 Fair CLR 4.4 3.5 94% 76.45 0.0
03 05:35 N 7 16.09 Fair CLR 1.5 1 97% -0 76.43 0.0
03 05:15 Calm 16.09 Fair CLR 1.5 1.1 97% 76.43 0.0
03 04:55 N 6 16.09 Fair CLR 1.7 1.3 97% 76.4 0.0
03 04:35 Calm 16.09 Fair CLR 1.8 1.5 98% 76.4 0.0
03 04:15 Calm 16.09 Fair CLR 1.7 1.3 97% 76.4 0.0
03 03:55 Calm 16.09 Fair CLR 2 1.6 97% 76.38 0.0
03 03:35 Calm 16.09 Fair CLR 1.4 1 97% 76.38 0.0
03 03:15 Calm 16.09 Fair CLR 1.8 1.3 97% 76.35 0.0
03 02:55 Calm 16.09 Fair CLR 2.4 1.9 97% 76.35 0.0
03 02:35 Calm 16.09 Fair CLR 2.4 2 97% 76.33 0.0
03 02:15 Calm 16.09 Fair CLR 2.5 2 97% 76.33 0.0
03 01:55 Calm 16.09 Fair CLR 3.4 2.8 11.1 3.1 96% 76.33 0.0
03 01:35 Calm 16.09 Fair CLR 3.5 2.7 95% 76.33 0.0
03 01:15 Calm 16.09 Fair CLR 3.8 2.9 94% 76.33 0.0
03 00:55 Calm 16.09 Fair CLR 3.7 2.7 93% 76.3 0.0
03 00:35 Calm 16.09 Fair CLR 3.8 2.6 92% 76.3 0.0
03 00:15 Calm 16.09 Fair CLR 5.1 4.1 93% 76.3 0.0
02 23:55 Calm 16.09 Fair CLR 4.7 3.4 91% 76.3 0.0
02 23:35 Calm 16.09 Fair CLR 5.4 4.1 91% 76.28 0.0
02 23:15 Calm 16.09 Fair CLR 5.4 4.3 93% 76.28 0.0
02 22:55 Calm 16.09 Fair CLR 5.3 4.2 93% 76.28 0.0
02 22:35 Calm 16.09 Fair CLR 5.3 4 91% 76.23 0.0
02 22:15 Calm 16.09 Fair CLR 5.7 4.2 90% 76.2 0.0
02 21:55 Calm 16.09 Fair CLR 6.5 4.7 88% 76.2 0.0
02 21:35 Calm 16.09 Fair CLR 6.8 4.6 86% 76.17 0.0
02 21:15 Calm 16.09 Fair CLR 7.4 4.6 83% 76.15 0.0
02 20:55 Calm 16.09 Partly Cloudy SCT090 7.6 5.2 85% 76.12 0.0
02 20:35 Calm 16.09 Partly Cloudy SCT090 8.8 6.5 86% 76.12 0.0
02 20:15 Calm 16.09 Fair CLR 9.5 5 74% 76.1 0.0
02 19:35 Calm 16.09 Fair CLR 12.1 4.6 60% 76.07 0.0
02 19:15 Calm 16.09 Fair CLR 14.3 2.1 44% 76.05 0.0
02 18:55 Calm 16.09 Fair CLR 14.6 2.3 44% 76.02 0.0
02 18:35 Calm 16.09 Fair CLR 14.1 2.1 45% 76.02 0.0
02 18:15 Calm 16.09 Partly Cloudy SCT090 14.1 2 44% 76.02 0.0
02 17:55 Calm 16.09 Mostly Cloudy BKN090 14.1 2.1 45% 76.02 0.0
02 17:35 E 6 16.09 Overcast BKN075 OVC090 14.4 2.6 45% 76.02 0.0
02 17:15 NE 7 16.09 Overcast BKN075 OVC090 14.4 2.1 44% 76.02 0.0
02 16:35 NE 9 16.09 Mostly Cloudy SCT075 SCT090 BKN110 14.2 1.5 42% 76.02 0.0
02 16:15 N 13 16.09 Partly Cloudy SCT085 SCT110 14 1.6 43% 76.02 0.0
02 15:55 NE 9 16.09 Overcast SCT060 BKN085 OVC110 14.2 2.4 45% 76.02 0.0
02 15:35 N 7 16.09 Overcast OVC060 14 2.1 45% 76.07 0.0
02 15:15 NE 13 16.09 Overcast OVC060 14.5 1.5 42% 76.07 0.0
02 14:35 NE 9 16.09 Overcast OVC060 14.6 2 43% 76.07 0.0
02 14:15 N 13 16.09 Overcast OVC050 14.5 2.6 45% 76.07 0.0
02 13:55 N 15 16.09 Overcast OVC050 14.3 2.3 14.9 11.7 45% 76.07 0.0 0.03
02 13:35 N 11 16.09 Overcast OVC050 14.7 2.4 44% 76.1 0.0
Date Time (edt) Wind (kph) Vis. (km) Weather Sky Cond. Air Dwpt Max. Min. Relative Humidity Wind Chill (°C) Heat Index (°C) altimeter (cm) sea level (mb) 1 hr 3 hr 6 hr
6 hour
Temperature (ºC) Pressure Precipitation (cm)